sensor_id;sensor_type;location;lat;lon;timestamp;P1;durP1;ratioP1;P2;durP2;ratioP2
70558;SDS011;58108;48.094;11.838;2023-05-07T00:00:24;4.07;;;1.97;;
70558;SDS011;58108;48.094;11.838;2023-05-07T00:02:49;6.10;;;2.17;;
70558;SDS011;58108;48.094;11.838;2023-05-07T00:05:14;3.70;;;2.00;;
70558;SDS011;58108;48.094;11.838;2023-05-07T00:07:40;4.60;;;2.23;;
70558;SDS011;58108;48.094;11.838;2023-05-07T00:10:05;5.27;;;2.57;;
70558;SDS011;58108;48.094;11.838;2023-05-07T00:12:31;5.60;;;2.60;;
70558;SDS011;58108;48.094;11.838;2023-05-07T00:14:58;7.00;;;2.70;;
70558;SDS011;58108;48.094;11.838;2023-05-07T00:17:23;5.37;;;2.73;;
70558;SDS011;58108;48.094;11.838;2023-05-07T00:19:48;6.87;;;3.20;;
70558;SDS011;58108;48.094;11.838;2023-05-07T00:22:14;5.50;;;2.73;;
70558;SDS011;58108;48.094;11.838;2023-05-07T00:24:39;6.80;;;3.00;;
70558;SDS011;58108;48.094;11.838;2023-05-07T00:27:04;5.47;;;3.03;;
70558;SDS011;58108;48.094;11.838;2023-05-07T00:29:29;7.07;;;3.00;;
70558;SDS011;58108;48.094;11.838;2023-05-07T00:31:54;6.70;;;3.00;;
70558;SDS011;58108;48.094;11.838;2023-05-07T00:34:19;5.50;;;3.00;;
70558;SDS011;58108;48.094;11.838;2023-05-07T00:36:45;6.97;;;1.97;;
70558;SDS011;58108;48.094;11.838;2023-05-07T00:39:10;5.60;;;2.47;;
70558;SDS011;58108;48.094;11.838;2023-05-07T00:41:35;5.77;;;2.50;;
70558;SDS011;58108;48.094;11.838;2023-05-07T00:44:00;5.50;;;2.43;;
70558;SDS011;58108;48.094;11.838;2023-05-07T00:46:27;4.55;;;2.33;;
70558;SDS011;58108;48.094;11.838;2023-05-07T00:48:53;4.33;;;2.07;;
70558;SDS011;58108;48.094;11.838;2023-05-07T00:51:18;4.60;;;2.33;;
70558;SDS011;58108;48.094;11.838;2023-05-07T00:53:43;4.70;;;2.70;;
70558;SDS011;58108;48.094;11.838;2023-05-07T00:56:09;4.50;;;2.20;;
70558;SDS011;58108;48.094;11.838;2023-05-07T00:58:34;6.10;;;2.17;;
70558;SDS011;58108;48.094;11.838;2023-05-07T01:01:00;6.20;;;2.30;;
70558;SDS011;58108;48.094;11.838;2023-05-07T01:03:25;4.33;;;2.27;;
70558;SDS011;58108;48.094;11.838;2023-05-07T01:05:50;5.70;;;2.57;;
70558;SDS011;58108;48.094;11.838;2023-05-07T01:08:17;4.35;;;2.42;;
70558;SDS011;58108;48.094;11.838;2023-05-07T01:10:42;4.43;;;2.23;;
70558;SDS011;58108;48.094;11.838;2023-05-07T01:13:11;6.18;;;2.88;;
70558;SDS011;58108;48.094;11.838;2023-05-07T01:15:37;5.47;;;2.60;;
70558;SDS011;58108;48.094;11.838;2023-05-07T01:18:02;5.63;;;2.35;;
70558;SDS011;58108;48.094;11.838;2023-05-07T01:20:28;6.20;;;2.67;;
70558;SDS011;58108;48.094;11.838;2023-05-07T01:22:53;6.10;;;3.10;;
70558;SDS011;58108;48.094;11.838;2023-05-07T01:25:18;5.50;;;2.70;;
70558;SDS011;58108;48.094;11.838;2023-05-07T01:27:43;5.20;;;2.67;;
70558;SDS011;58108;48.094;11.838;2023-05-07T01:30:08;5.97;;;2.87;;
70558;SDS011;58108;48.094;11.838;2023-05-07T01:32:43;6.23;;;2.73;;
70558;SDS011;58108;48.094;11.838;2023-05-07T01:35:11;6.50;;;3.03;;
70558;SDS011;58108;48.094;11.838;2023-05-07T01:37:37;4.70;;;2.60;;
70558;SDS011;58108;48.094;11.838;2023-05-07T01:40:02;5.43;;;2.80;;
70558;SDS011;58108;48.094;11.838;2023-05-07T01:42:28;4.37;;;2.33;;
70558;SDS011;58108;48.094;11.838;2023-05-07T01:44:54;5.13;;;2.45;;
70558;SDS011;58108;48.094;11.838;2023-05-07T01:47:19;4.10;;;2.10;;
70558;SDS011;58108;48.094;11.838;2023-05-07T01:49:45;5.07;;;2.10;;
70558;SDS011;58108;48.094;11.838;2023-05-07T01:52:10;4.97;;;2.60;;
70558;SDS011;58108;48.094;11.838;2023-05-07T01:54:36;5.27;;;2.20;;
70558;SDS011;58108;48.094;11.838;2023-05-07T01:57:01;5.10;;;2.70;;
70558;SDS011;58108;48.094;11.838;2023-05-07T01:59:27;6.33;;;2.90;;
70558;SDS011;58108;48.094;11.838;2023-05-07T02:01:52;6.90;;;2.90;;
70558;SDS011;58108;48.094;11.838;2023-05-07T02:04:17;4.70;;;2.40;;
70558;SDS011;58108;48.094;11.838;2023-05-07T02:06:42;5.07;;;2.70;;
70558;SDS011;58108;48.094;11.838;2023-05-07T02:09:07;4.70;;;2.60;;
70558;SDS011;58108;48.094;11.838;2023-05-07T02:11:33;4.00;;;2.13;;
70558;SDS011;58108;48.094;11.838;2023-05-07T02:13:59;5.27;;;2.50;;
70558;SDS011;58108;48.094;11.838;2023-05-07T02:16:24;4.70;;;2.20;;
70558;SDS011;58108;48.094;11.838;2023-05-07T02:18:49;4.53;;;2.43;;
70558;SDS011;58108;48.094;11.838;2023-05-07T02:21:14;6.53;;;2.67;;
70558;SDS011;58108;48.094;11.838;2023-05-07T02:23:40;4.73;;;2.30;;
70558;SDS011;58108;48.094;11.838;2023-05-07T02:26:05;7.30;;;2.77;;
70558;SDS011;58108;48.094;11.838;2023-05-07T02:28:30;5.07;;;2.47;;
70558;SDS011;58108;48.094;11.838;2023-05-07T02:30:55;4.53;;;2.07;;
70558;SDS011;58108;48.094;11.838;2023-05-07T02:33:23;4.38;;;2.25;;
70558;SDS011;58108;48.094;11.838;2023-05-07T02:35:48;5.33;;;2.33;;
70558;SDS011;58108;48.094;11.838;2023-05-07T02:38:13;7.33;;;2.80;;
70558;SDS011;58108;48.094;11.838;2023-05-07T02:40:38;5.47;;;2.33;;
70558;SDS011;58108;48.094;11.838;2023-05-07T02:43:04;5.60;;;2.80;;
70558;SDS011;58108;48.094;11.838;2023-05-07T02:45:30;3.95;;;2.33;;
70558;SDS011;58108;48.094;11.838;2023-05-07T02:47:55;4.03;;;2.27;;
70558;SDS011;58108;48.094;11.838;2023-05-07T02:50:20;5.17;;;2.13;;
70558;SDS011;58108;48.094;11.838;2023-05-07T02:52:46;4.70;;;2.30;;
70558;SDS011;58108;48.094;11.838;2023-05-07T02:55:12;4.80;;;2.60;;
70558;SDS011;58108;48.094;11.838;2023-05-07T02:57:37;6.30;;;2.63;;
70558;SDS011;58108;48.094;11.838;2023-05-07T03:00:15;5.20;;;2.80;;
70558;SDS011;58108;48.094;11.838;2023-05-07T03:02:41;5.72;;;2.70;;
70558;SDS011;58108;48.094;11.838;2023-05-07T03:05:06;5.60;;;3.00;;
70558;SDS011;58108;48.094;11.838;2023-05-07T03:07:31;5.40;;;2.63;;
70558;SDS011;58108;48.094;11.838;2023-05-07T03:09:56;5.30;;;2.80;;
70558;SDS011;58108;48.094;11.838;2023-05-07T03:12:21;4.75;;;2.80;;
70558;SDS011;58108;48.094;11.838;2023-05-07T03:14:47;6.83;;;2.80;;
70558;SDS011;58108;48.094;11.838;2023-05-07T03:17:12;5.30;;;2.70;;
70558;SDS011;58108;48.094;11.838;2023-05-07T03:19:37;5.77;;;2.87;;
70558;SDS011;58108;48.094;11.838;2023-05-07T03:22:02;5.43;;;2.70;;
70558;SDS011;58108;48.094;11.838;2023-05-07T03:24:27;5.10;;;2.60;;
70558;SDS011;58108;48.094;11.838;2023-05-07T03:26:52;5.87;;;2.40;;
70558;SDS011;58108;48.094;11.838;2023-05-07T03:29:18;4.97;;;2.50;;
70558;SDS011;58108;48.094;11.838;2023-05-07T03:31:43;5.63;;;2.83;;
70558;SDS011;58108;48.094;11.838;2023-05-07T03:34:08;7.40;;;3.20;;
70558;SDS011;58108;48.094;11.838;2023-05-07T03:36:33;9.00;;;3.30;;
70558;SDS011;58108;48.094;11.838;2023-05-07T03:38:58;6.83;;;3.80;;
70558;SDS011;58108;48.094;11.838;2023-05-07T03:41:24;11.03;;;4.07;;
70558;SDS011;58108;48.094;11.838;2023-05-07T03:43:50;6.72;;;3.55;;
70558;SDS011;58108;48.094;11.838;2023-05-07T03:46:15;5.67;;;3.33;;
70558;SDS011;58108;48.094;11.838;2023-05-07T03:48:40;5.90;;;3.00;;
70558;SDS011;58108;48.094;11.838;2023-05-07T03:51:06;5.20;;;3.00;;
70558;SDS011;58108;48.094;11.838;2023-05-07T03:53:31;5.57;;;3.00;;
70558;SDS011;58108;48.094;11.838;2023-05-07T03:55:56;5.70;;;2.90;;
70558;SDS011;58108;48.094;11.838;2023-05-07T03:58:21;8.17;;;3.10;;
70558;SDS011;58108;48.094;11.838;2023-05-07T04:00:46;6.97;;;3.13;;
70558;SDS011;58108;48.094;11.838;2023-05-07T04:03:11;5.17;;;3.00;;
70558;SDS011;58108;48.094;11.838;2023-05-07T04:05:37;5.97;;;3.07;;
70558;SDS011;58108;48.094;11.838;2023-05-07T04:08:02;6.30;;;2.90;;
70558;SDS011;58108;48.094;11.838;2023-05-07T04:10:28;7.93;;;3.27;;
70558;SDS011;58108;48.094;11.838;2023-05-07T04:12:54;6.72;;;3.65;;
70558;SDS011;58108;48.094;11.838;2023-05-07T04:15:19;7.37;;;3.50;;
70558;SDS011;58108;48.094;11.838;2023-05-07T04:17:44;5.60;;;3.17;;
70558;SDS011;58108;48.094;11.838;2023-05-07T04:20:10;6.53;;;2.73;;
70558;SDS011;58108;48.094;11.838;2023-05-07T04:22:35;5.80;;;2.85;;
70558;SDS011;58108;48.094;11.838;2023-05-07T04:25:00;6.50;;;2.97;;
70558;SDS011;58108;48.094;11.838;2023-05-07T04:27:26;6.27;;;3.50;;
70558;SDS011;58108;48.094;11.838;2023-05-07T04:29:51;7.17;;;2.93;;
70558;SDS011;58108;48.094;11.838;2023-05-07T04:32:16;6.37;;;3.40;;
70558;SDS011;58108;48.094;11.838;2023-05-07T04:34:42;6.43;;;3.53;;
70558;SDS011;58108;48.094;11.838;2023-05-07T04:37:07;5.90;;;3.10;;
70558;SDS011;58108;48.094;11.838;2023-05-07T04:39:33;6.70;;;3.28;;
70558;SDS011;58108;48.094;11.838;2023-05-07T04:42:00;9.35;;;3.55;;
70558;SDS011;58108;48.094;11.838;2023-05-07T04:44:25;6.63;;;3.90;;
70558;SDS011;58108;48.094;11.838;2023-05-07T04:46:50;6.10;;;3.50;;
70558;SDS011;58108;48.094;11.838;2023-05-07T04:49:15;8.23;;;3.60;;
70558;SDS011;58108;48.094;11.838;2023-05-07T04:51:41;5.67;;;3.50;;
70558;SDS011;58108;48.094;11.838;2023-05-07T04:54:07;6.83;;;3.50;;
70558;SDS011;58108;48.094;11.838;2023-05-07T04:56:32;8.07;;;3.63;;
70558;SDS011;58108;48.094;11.838;2023-05-07T04:58:58;6.78;;;3.42;;
70558;SDS011;58108;48.094;11.838;2023-05-07T05:01:23;6.40;;;3.60;;
70558;SDS011;58108;48.094;11.838;2023-05-07T05:03:48;6.73;;;3.60;;
70558;SDS011;58108;48.094;11.838;2023-05-07T05:06:13;6.60;;;3.80;;
70558;SDS011;58108;48.094;11.838;2023-05-07T05:08:38;8.70;;;4.50;;
70558;SDS011;58108;48.094;11.838;2023-05-07T05:11:04;7.83;;;4.33;;
70558;SDS011;58108;48.094;11.838;2023-05-07T05:13:29;9.97;;;4.80;;
70558;SDS011;58108;48.094;11.838;2023-05-07T05:15:55;7.05;;;3.90;;
70558;SDS011;58108;48.094;11.838;2023-05-07T05:18:20;6.33;;;3.40;;
70558;SDS011;58108;48.094;11.838;2023-05-07T05:20:46;7.65;;;3.63;;
70558;SDS011;58108;48.094;11.838;2023-05-07T05:23:11;7.33;;;3.83;;
70558;SDS011;58108;48.094;11.838;2023-05-07T05:25:36;7.10;;;4.18;;
70558;SDS011;58108;48.094;11.838;2023-05-07T05:28:02;7.23;;;4.50;;
70558;SDS011;58108;48.094;11.838;2023-05-07T05:30:27;8.70;;;4.63;;
70558;SDS011;58108;48.094;11.838;2023-05-07T05:32:52;8.47;;;4.50;;
70558;SDS011;58108;48.094;11.838;2023-05-07T05:35:17;7.60;;;4.80;;
70558;SDS011;58108;48.094;11.838;2023-05-07T05:37:43;8.10;;;4.60;;
70558;SDS011;58108;48.094;11.838;2023-05-07T05:40:08;8.10;;;4.67;;
70558;SDS011;58108;48.094;11.838;2023-05-07T05:42:33;9.50;;;5.20;;
70558;SDS011;58108;48.094;11.838;2023-05-07T05:44:58;9.50;;;4.93;;
70558;SDS011;58108;48.094;11.838;2023-05-07T05:47:23;8.03;;;4.83;;
70558;SDS011;58108;48.094;11.838;2023-05-07T05:49:49;11.97;;;5.70;;
70558;SDS011;58108;48.094;11.838;2023-05-07T05:52:14;8.90;;;5.37;;
70558;SDS011;58108;48.094;11.838;2023-05-07T05:54:39;9.17;;;4.73;;
70558;SDS011;58108;48.094;11.838;2023-05-07T05:57:04;8.97;;;5.50;;
70558;SDS011;58108;48.094;11.838;2023-05-07T05:59:29;9.37;;;5.33;;
70558;SDS011;58108;48.094;11.838;2023-05-07T06:01:55;9.67;;;5.90;;
70558;SDS011;58108;48.094;11.838;2023-05-07T06:04:20;9.23;;;5.50;;
70558;SDS011;58108;48.094;11.838;2023-05-07T06:06:45;10.23;;;5.70;;
70558;SDS011;58108;48.094;11.838;2023-05-07T06:09:10;7.70;;;4.70;;
70558;SDS011;58108;48.094;11.838;2023-05-07T06:11:36;9.53;;;4.93;;
70558;SDS011;58108;48.094;11.838;2023-05-07T06:14:01;7.50;;;4.60;;
70558;SDS011;58108;48.094;11.838;2023-05-07T06:16:26;7.47;;;4.50;;
70558;SDS011;58108;48.094;11.838;2023-05-07T06:18:51;7.93;;;3.97;;
70558;SDS011;58108;48.094;11.838;2023-05-07T06:21:16;7.40;;;4.60;;
70558;SDS011;58108;48.094;11.838;2023-05-07T06:23:42;9.27;;;4.10;;
70558;SDS011;58108;48.094;11.838;2023-05-07T06:26:07;8.53;;;4.33;;
70558;SDS011;58108;48.094;11.838;2023-05-07T06:28:32;7.97;;;3.40;;
70558;SDS011;58108;48.094;11.838;2023-05-07T06:31:19;7.33;;;3.53;;
70558;SDS011;58108;48.094;11.838;2023-05-07T06:33:48;5.72;;;3.38;;
70558;SDS011;58108;48.094;11.838;2023-05-07T06:36:13;7.95;;;3.65;;
70558;SDS011;58108;48.094;11.838;2023-05-07T06:38:38;6.20;;;2.97;;
70558;SDS011;58108;48.094;11.838;2023-05-07T06:41:05;7.13;;;3.50;;
70558;SDS011;58108;48.094;11.838;2023-05-07T06:43:30;5.68;;;3.10;;
70558;SDS011;58108;48.094;11.838;2023-05-07T06:45:55;9.17;;;3.10;;
70558;SDS011;58108;48.094;11.838;2023-05-07T06:48:20;7.33;;;3.10;;
70558;SDS011;58108;48.094;11.838;2023-05-07T06:50:45;5.67;;;3.10;;
70558;SDS011;58108;48.094;11.838;2023-05-07T06:53:10;5.70;;;2.97;;
70558;SDS011;58108;48.094;11.838;2023-05-07T06:55:36;5.80;;;2.70;;
70558;SDS011;58108;48.094;11.838;2023-05-07T06:58:03;5.68;;;3.22;;
70558;SDS011;58108;48.094;11.838;2023-05-07T07:00:28;5.93;;;2.85;;
70558;SDS011;58108;48.094;11.838;2023-05-07T07:02:54;4.50;;;2.97;;
70558;SDS011;58108;48.094;11.838;2023-05-07T07:05:19;5.97;;;3.00;;
70558;SDS011;58108;48.094;11.838;2023-05-07T07:07:44;5.77;;;3.30;;
70558;SDS011;58108;48.094;11.838;2023-05-07T07:10:09;6.77;;;3.10;;
70558;SDS011;58108;48.094;11.838;2023-05-07T07:12:35;6.43;;;3.40;;
70558;SDS011;58108;48.094;11.838;2023-05-07T07:15:00;5.80;;;3.40;;
70558;SDS011;58108;48.094;11.838;2023-05-07T07:17:25;5.73;;;3.40;;
70558;SDS011;58108;48.094;11.838;2023-05-07T07:19:50;6.20;;;3.20;;
70558;SDS011;58108;48.094;11.838;2023-05-07T07:22:16;7.00;;;3.70;;
70558;SDS011;58108;48.094;11.838;2023-05-07T07:24:41;5.00;;;2.90;;
70558;SDS011;58108;48.094;11.838;2023-05-07T07:27:06;5.90;;;3.10;;
70558;SDS011;58108;48.094;11.838;2023-05-07T07:29:31;5.70;;;3.17;;
70558;SDS011;58108;48.094;11.838;2023-05-07T07:31:57;6.03;;;3.57;;
70558;SDS011;58108;48.094;11.838;2023-05-07T07:34:22;5.87;;;3.03;;
70558;SDS011;58108;48.094;11.838;2023-05-07T07:36:47;5.25;;;2.90;;
70558;SDS011;58108;48.094;11.838;2023-05-07T07:39:12;4.80;;;2.67;;
70558;SDS011;58108;48.094;11.838;2023-05-07T07:41:37;5.55;;;3.00;;
70558;SDS011;58108;48.094;11.838;2023-05-07T07:44:03;4.70;;;2.53;;
70558;SDS011;58108;48.094;11.838;2023-05-07T07:46:28;4.23;;;2.47;;
70558;SDS011;58108;48.094;11.838;2023-05-07T07:48:54;5.80;;;2.57;;
70558;SDS011;58108;48.094;11.838;2023-05-07T07:51:19;5.70;;;2.85;;
70558;SDS011;58108;48.094;11.838;2023-05-07T07:53:45;7.47;;;3.40;;
70558;SDS011;58108;48.094;11.838;2023-05-07T07:56:10;6.63;;;2.90;;
70558;SDS011;58108;48.094;11.838;2023-05-07T07:58:35;6.17;;;3.13;;
70558;SDS011;58108;48.094;11.838;2023-05-07T08:01:02;6.75;;;3.30;;
70558;SDS011;58108;48.094;11.838;2023-05-07T08:03:27;5.13;;;3.03;;
70558;SDS011;58108;48.094;11.838;2023-05-07T08:05:53;6.37;;;3.07;;
70558;SDS011;58108;48.094;11.838;2023-05-07T08:08:18;5.10;;;2.80;;
70558;SDS011;58108;48.094;11.838;2023-05-07T08:10:43;5.33;;;2.83;;
70558;SDS011;58108;48.094;11.838;2023-05-07T08:13:09;4.25;;;2.75;;
70558;SDS011;58108;48.094;11.838;2023-05-07T08:15:34;7.60;;;3.27;;
70558;SDS011;58108;48.094;11.838;2023-05-07T08:18:00;4.77;;;2.60;;
70558;SDS011;58108;48.094;11.838;2023-05-07T08:20:25;7.28;;;3.33;;
70558;SDS011;58108;48.094;11.838;2023-05-07T08:22:51;4.87;;;2.80;;
70558;SDS011;58108;48.094;11.838;2023-05-07T08:25:16;5.60;;;2.90;;
70558;SDS011;58108;48.094;11.838;2023-05-07T08:27:41;5.83;;;2.70;;
70558;SDS011;58108;48.094;11.838;2023-05-07T08:30:07;5.13;;;2.40;;
70558;SDS011;58108;48.094;11.838;2023-05-07T08:32:32;4.37;;;2.50;;
70558;SDS011;58108;48.094;11.838;2023-05-07T08:34:57;4.00;;;2.53;;
70558;SDS011;58108;48.094;11.838;2023-05-07T08:37:22;5.40;;;2.67;;
70558;SDS011;58108;48.094;11.838;2023-05-07T08:39:50;4.17;;;2.43;;
70558;SDS011;58108;48.094;11.838;2023-05-07T08:42:16;4.63;;;2.40;;
70558;SDS011;58108;48.094;11.838;2023-05-07T08:44:41;3.70;;;2.40;;
70558;SDS011;58108;48.094;11.838;2023-05-07T08:47:08;4.70;;;2.58;;
70558;SDS011;58108;48.094;11.838;2023-05-07T08:49:35;3.92;;;2.10;;
70558;SDS011;58108;48.094;11.838;2023-05-07T08:52:00;5.67;;;2.10;;
70558;SDS011;58108;48.094;11.838;2023-05-07T08:54:25;6.00;;;2.50;;
70558;SDS011;58108;48.094;11.838;2023-05-07T08:56:51;4.80;;;2.20;;
70558;SDS011;58108;48.094;11.838;2023-05-07T08:59:16;4.70;;;2.23;;
70558;SDS011;58108;48.094;11.838;2023-05-07T09:01:41;3.70;;;1.97;;
70558;SDS011;58108;48.094;11.838;2023-05-07T09:04:06;3.20;;;1.70;;
70558;SDS011;58108;48.094;11.838;2023-05-07T09:06:32;5.00;;;2.50;;
70558;SDS011;58108;48.094;11.838;2023-05-07T09:08:57;5.40;;;2.80;;
70558;SDS011;58108;48.094;11.838;2023-05-07T09:11:26;4.93;;;2.10;;
70558;SDS011;58108;48.094;11.838;2023-05-07T09:13:54;4.83;;;1.97;;
70558;SDS011;58108;48.094;11.838;2023-05-07T09:16:26;3.42;;;2.00;;
70558;SDS011;58108;48.094;11.838;2023-05-07T09:18:52;5.40;;;2.70;;
70558;SDS011;58108;48.094;11.838;2023-05-07T09:21:18;5.82;;;2.75;;
70558;SDS011;58108;48.094;11.838;2023-05-07T09:23:46;4.40;;;2.40;;
70558;SDS011;58108;48.094;11.838;2023-05-07T09:26:12;3.65;;;2.08;;
70558;SDS011;58108;48.094;11.838;2023-05-07T09:28:38;4.03;;;1.90;;
70558;SDS011;58108;48.094;11.838;2023-05-07T09:31:04;4.53;;;2.20;;
70558;SDS011;58108;48.094;11.838;2023-05-07T09:33:30;3.63;;;2.17;;
70558;SDS011;58108;48.094;11.838;2023-05-07T09:35:55;3.67;;;2.00;;
70558;SDS011;58108;48.094;11.838;2023-05-07T09:38:20;6.07;;;2.30;;
70558;SDS011;58108;48.094;11.838;2023-05-07T09:40:46;3.90;;;1.93;;
70558;SDS011;58108;48.094;11.838;2023-05-07T09:43:12;3.80;;;2.20;;
70558;SDS011;58108;48.094;11.838;2023-05-07T09:45:38;4.20;;;2.53;;
70558;SDS011;58108;48.094;11.838;2023-05-07T09:48:04;6.97;;;2.50;;
70558;SDS011;58108;48.094;11.838;2023-05-07T09:50:30;4.20;;;2.40;;
70558;SDS011;58108;48.094;11.838;2023-05-07T09:52:57;4.75;;;2.30;;
70558;SDS011;58108;48.094;11.838;2023-05-07T09:55:22;5.87;;;2.30;;
70558;SDS011;58108;48.094;11.838;2023-05-07T09:57:50;4.40;;;1.80;;
70558;SDS011;58108;48.094;11.838;2023-05-07T10:00:15;4.70;;;1.73;;
70558;SDS011;58108;48.094;11.838;2023-05-07T10:02:42;3.38;;;1.65;;
70558;SDS011;58108;48.094;11.838;2023-05-07T10:05:13;3.50;;;1.90;;
70558;SDS011;58108;48.094;11.838;2023-05-07T10:07:39;4.55;;;2.03;;
70558;SDS011;58108;48.094;11.838;2023-05-07T10:10:05;4.13;;;1.93;;
70558;SDS011;58108;48.094;11.838;2023-05-07T10:12:31;3.78;;;1.95;;
70558;SDS011;58108;48.094;11.838;2023-05-07T10:15:02;3.42;;;2.00;;
70558;SDS011;58108;48.094;11.838;2023-05-07T10:17:28;3.40;;;2.03;;
70558;SDS011;58108;48.094;11.838;2023-05-07T10:19:53;4.78;;;1.90;;
70558;SDS011;58108;48.094;11.838;2023-05-07T10:22:18;3.35;;;1.70;;
70558;SDS011;58108;48.094;11.838;2023-05-07T10:24:45;2.60;;;1.60;;
70558;SDS011;58108;48.094;11.838;2023-05-07T10:27:13;2.80;;;1.70;;
70558;SDS011;58108;48.094;11.838;2023-05-07T10:34:43;3.38;;;1.67;;
70558;SDS011;58108;48.094;11.838;2023-05-07T10:37:10;3.33;;;1.67;;
70558;SDS011;58108;48.094;11.838;2023-05-07T10:39:35;3.20;;;1.75;;
70558;SDS011;58108;48.094;11.838;2023-05-07T10:42:08;3.97;;;1.60;;
70558;SDS011;58108;48.094;11.838;2023-05-07T10:44:33;3.15;;;1.70;;
70558;SDS011;58108;48.094;11.838;2023-05-07T10:47:08;5.73;;;1.80;;
70558;SDS011;58108;48.094;11.838;2023-05-07T10:52:23;3.77;;;1.70;;
70558;SDS011;58108;48.094;11.838;2023-05-07T10:55:33;2.70;;;1.63;;
70558;SDS011;58108;48.094;11.838;2023-05-07T10:57:40;5.63;;;1.75;;
70558;SDS011;58108;48.094;11.838;2023-05-07T11:05:29;3.15;;;1.83;;
70558;SDS011;58108;48.094;11.838;2023-05-07T11:07:56;3.97;;;2.20;;
70558;SDS011;58108;48.094;11.838;2023-05-07T11:10:21;3.85;;;1.70;;
70558;SDS011;58108;48.094;11.838;2023-05-07T11:12:47;3.90;;;2.00;;
70558;SDS011;58108;48.094;11.838;2023-05-07T11:15:13;3.60;;;1.70;;
70558;SDS011;58108;48.094;11.838;2023-05-07T11:17:54;4.88;;;1.80;;
70558;SDS011;58108;48.094;11.838;2023-05-07T11:20:20;2.92;;;1.70;;
70558;SDS011;58108;48.094;11.838;2023-05-07T11:22:46;4.63;;;1.93;;
70558;SDS011;58108;48.094;11.838;2023-05-07T11:25:17;3.05;;;1.90;;
70558;SDS011;58108;48.094;11.838;2023-05-07T11:27:42;3.47;;;1.77;;
70558;SDS011;58108;48.094;11.838;2023-05-07T11:30:08;3.20;;;1.60;;
70558;SDS011;58108;48.094;11.838;2023-05-07T11:32:33;2.97;;;1.50;;
70558;SDS011;58108;48.094;11.838;2023-05-07T11:34:59;4.27;;;1.70;;
70558;SDS011;58108;48.094;11.838;2023-05-07T11:37:26;8.07;;;4.60;;
70558;SDS011;58108;48.094;11.838;2023-05-07T11:40:01;4.88;;;2.20;;
70558;SDS011;58108;48.094;11.838;2023-05-07T11:44:55;4.40;;;2.05;;
70558;SDS011;58108;48.094;11.838;2023-05-07T11:47:20;3.70;;;2.10;;
70558;SDS011;58108;48.094;11.838;2023-05-07T11:49:47;3.78;;;2.10;;
70558;SDS011;58108;48.094;11.838;2023-05-07T11:52:12;3.93;;;2.00;;
70558;SDS011;58108;48.094;11.838;2023-05-07T11:54:38;3.87;;;2.10;;
70558;SDS011;58108;48.094;11.838;2023-05-07T11:57:03;2.90;;;1.90;;
70558;SDS011;58108;48.094;11.838;2023-05-07T11:59:28;4.60;;;2.70;;
70558;SDS011;58108;48.094;11.838;2023-05-07T12:01:56;4.10;;;2.20;;
70558;SDS011;58108;48.094;11.838;2023-05-07T12:04:22;3.67;;;2.60;;
70558;SDS011;58108;48.094;11.838;2023-05-07T12:06:47;4.40;;;1.90;;
70558;SDS011;58108;48.094;11.838;2023-05-07T12:09:12;3.13;;;2.08;;
70558;SDS011;58108;48.094;11.838;2023-05-07T12:11:37;3.63;;;2.10;;
70558;SDS011;58108;48.094;11.838;2023-05-07T12:14:04;3.40;;;2.40;;
70558;SDS011;58108;48.094;11.838;2023-05-07T12:16:30;5.13;;;2.90;;
70558;SDS011;58108;48.094;11.838;2023-05-07T12:18:55;4.67;;;2.40;;
70558;SDS011;58108;48.094;11.838;2023-05-07T12:21:21;4.82;;;2.60;;
70558;SDS011;58108;48.094;11.838;2023-05-07T12:23:46;3.93;;;2.57;;
70558;SDS011;58108;48.094;11.838;2023-05-07T12:26:12;4.63;;;3.00;;
70558;SDS011;58108;48.094;11.838;2023-05-07T12:28:38;5.03;;;3.00;;
70558;SDS011;58108;48.094;11.838;2023-05-07T12:31:03;7.05;;;4.40;;
70558;SDS011;58108;48.094;11.838;2023-05-07T12:33:29;5.03;;;3.03;;
70558;SDS011;58108;48.094;11.838;2023-05-07T12:35:55;4.88;;;2.80;;
70558;SDS011;58108;48.094;11.838;2023-05-07T12:38:21;3.70;;;2.83;;
70558;SDS011;58108;48.094;11.838;2023-05-07T12:40:47;4.50;;;2.73;;
70558;SDS011;58108;48.094;11.838;2023-05-07T12:43:25;5.88;;;2.75;;
70558;SDS011;58108;48.094;11.838;2023-05-07T12:45:51;3.92;;;2.60;;
70558;SDS011;58108;48.094;11.838;2023-05-07T12:48:16;4.53;;;2.50;;
70558;SDS011;58108;48.094;11.838;2023-05-07T12:50:42;4.03;;;2.60;;
70558;SDS011;58108;48.094;11.838;2023-05-07T12:53:08;5.10;;;2.97;;
70558;SDS011;58108;48.094;11.838;2023-05-07T12:56:07;3.88;;;2.60;;
70558;SDS011;58108;48.094;11.838;2023-05-07T12:58:26;3.97;;;2.60;;
70558;SDS011;58108;48.094;11.838;2023-05-07T13:00:53;5.30;;;3.00;;
70558;SDS011;58108;48.094;11.838;2023-05-07T13:03:26;4.85;;;2.60;;
70558;SDS011;58108;48.094;11.838;2023-05-07T13:05:51;4.67;;;2.87;;
70558;SDS011;58108;48.094;11.838;2023-05-07T13:08:50;5.80;;;2.90;;
70558;SDS011;58108;48.094;11.838;2023-05-07T13:11:08;6.30;;;3.35;;
70558;SDS011;58108;48.094;11.838;2023-05-07T13:13:35;4.55;;;2.47;;
70558;SDS011;58108;48.094;11.838;2023-05-07T13:16:01;3.30;;;2.60;;
70558;SDS011;58108;48.094;11.838;2023-05-07T13:18:28;4.13;;;2.40;;
70558;SDS011;58108;48.094;11.838;2023-05-07T13:20:54;4.50;;;2.22;;
70558;SDS011;58108;48.094;11.838;2023-05-07T13:23:19;4.30;;;3.13;;
70558;SDS011;58108;48.094;11.838;2023-05-07T13:25:44;3.63;;;2.80;;
70558;SDS011;58108;48.094;11.838;2023-05-07T13:28:10;4.97;;;2.87;;
70558;SDS011;58108;48.094;11.838;2023-05-07T13:30:35;4.72;;;3.45;;
70558;SDS011;58108;48.094;11.838;2023-05-07T13:33:01;5.80;;;3.10;;
70558;SDS011;58108;48.094;11.838;2023-05-07T13:35:26;4.33;;;2.50;;
70558;SDS011;58108;48.094;11.838;2023-05-07T13:37:51;3.20;;;2.30;;
70558;SDS011;58108;48.094;11.838;2023-05-07T13:40:17;3.50;;;2.40;;
70558;SDS011;58108;48.094;11.838;2023-05-07T13:42:42;3.80;;;2.40;;
70558;SDS011;58108;48.094;11.838;2023-05-07T13:45:07;3.13;;;2.23;;
70558;SDS011;58108;48.094;11.838;2023-05-07T13:47:33;3.97;;;2.47;;
70558;SDS011;58108;48.094;11.838;2023-05-07T13:49:59;3.80;;;2.67;;
70558;SDS011;58108;48.094;11.838;2023-05-07T13:52:24;5.43;;;2.40;;
70558;SDS011;58108;48.094;11.838;2023-05-07T13:54:49;4.03;;;2.40;;
70558;SDS011;58108;48.094;11.838;2023-05-07T13:57:17;3.43;;;2.37;;
70558;SDS011;58108;48.094;11.838;2023-05-07T13:59:42;3.10;;;2.20;;
70558;SDS011;58108;48.094;11.838;2023-05-07T14:02:07;3.13;;;2.17;;
70558;SDS011;58108;48.094;11.838;2023-05-07T14:04:33;3.92;;;2.08;;
70558;SDS011;58108;48.094;11.838;2023-05-07T14:06:59;3.87;;;2.40;;
70558;SDS011;58108;48.094;11.838;2023-05-07T14:09:24;3.63;;;2.30;;
70558;SDS011;58108;48.094;11.838;2023-05-07T14:11:49;4.03;;;2.58;;
70558;SDS011;58108;48.094;11.838;2023-05-07T14:14:16;4.57;;;2.63;;
70558;SDS011;58108;48.094;11.838;2023-05-07T14:16:42;3.75;;;2.45;;
70558;SDS011;58108;48.094;11.838;2023-05-07T14:19:07;3.50;;;2.50;;
70558;SDS011;58108;48.094;11.838;2023-05-07T14:21:32;4.70;;;2.20;;
70558;SDS011;58108;48.094;11.838;2023-05-07T14:23:57;3.97;;;2.20;;
70558;SDS011;58108;48.094;11.838;2023-05-07T14:26:23;5.13;;;2.30;;
70558;SDS011;58108;48.094;11.838;2023-05-07T14:28:48;4.40;;;2.27;;
70558;SDS011;58108;48.094;11.838;2023-05-07T14:31:13;3.40;;;1.90;;
70558;SDS011;58108;48.094;11.838;2023-05-07T14:33:38;5.30;;;2.40;;
70558;SDS011;58108;48.094;11.838;2023-05-07T14:36:04;3.20;;;1.95;;
70558;SDS011;58108;48.094;11.838;2023-05-07T14:38:29;3.58;;;1.98;;
70558;SDS011;58108;48.094;11.838;2023-05-07T14:40:55;3.57;;;1.83;;